sensor_id;sensor_type;location;lat;lon;timestamp;temperature;humidity
14378;DHT22;7272;53.668;9.578;2023-07-29T00:00:14;18.50;99.90
14378;DHT22;7272;53.668;9.578;2023-07-29T00:03:16;18.50;99.90
14378;DHT22;7272;53.668;9.578;2023-07-29T00:06:17;18.50;99.90
14378;DHT22;7272;53.668;9.578;2023-07-29T00:09:18;18.60;99.90
14378;DHT22;7272;53.668;9.578;2023-07-29T00:12:19;18.50;99.90
14378;DHT22;7272;53.668;9.578;2023-07-29T00:15:21;18.50;99.90
14378;DHT22;7272;53.668;9.578;2023-07-29T00:18:22;18.50;99.90
14378;DHT22;7272;53.668;9.578;2023-07-29T00:21:24;18.50;99.90
14378;DHT22;7272;53.668;9.578;2023-07-29T00:24:25;18.50;99.90
14378;DHT22;7272;53.668;9.578;2023-07-29T00:27:26;18.50;99.90
14378;DHT22;7272;53.668;9.578;2023-07-29T00:30:30;18.40;99.90
14378;DHT22;7272;53.668;9.578;2023-07-29T00:33:32;18.40;99.90
14378;DHT22;7272;53.668;9.578;2023-07-29T00:36:33;18.40;99.90
14378;DHT22;7272;53.668;9.578;2023-07-29T00:39:35;18.30;99.90
14378;DHT22;7272;53.668;9.578;2023-07-29T00:42:37;18.40;99.90
14378;DHT22;7272;53.668;9.578;2023-07-29T00:45:39;18.50;99.90
14378;DHT22;7272;53.668;9.578;2023-07-29T00:48:42;18.40;99.90
14378;DHT22;7272;53.668;9.578;2023-07-29T00:51:44;18.40;99.90
14378;DHT22;7272;53.668;9.578;2023-07-29T00:54:45;18.40;99.90
14378;DHT22;7272;53.668;9.578;2023-07-29T00:57:46;18.50;99.90
14378;DHT22;7272;53.668;9.578;2023-07-29T01:00:50;18.50;99.90
14378;DHT22;7272;53.668;9.578;2023-07-29T01:03:51;18.50;99.90
14378;DHT22;7272;53.668;9.578;2023-07-29T01:06:57;18.60;99.90
14378;DHT22;7272;53.668;9.578;2023-07-29T01:10:01;18.60;99.90
14378;DHT22;7272;53.668;9.578;2023-07-29T01:16:29;18.60;99.90
14378;DHT22;7272;53.668;9.578;2023-07-29T01:19:52;18.60;99.90
14378;DHT22;7272;53.668;9.578;2023-07-29T01:22:57;18.70;99.90
14378;DHT22;7272;53.668;9.578;2023-07-29T01:25:59;18.80;99.90
14378;DHT22;7272;53.668;9.578;2023-07-29T01:29:01;18.90;99.90
14378;DHT22;7272;53.668;9.578;2023-07-29T01:32:07;18.90;99.90
14378;DHT22;7272;53.668;9.578;2023-07-29T01:35:18;18.90;99.90
14378;DHT22;7272;53.668;9.578;2023-07-29T01:38:24;18.80;99.90
14378;DHT22;7272;53.668;9.578;2023-07-29T01:41:30;18.80;99.90
14378;DHT22;7272;53.668;9.578;2023-07-29T01:44:32;18.80;99.90
14378;DHT22;7272;53.668;9.578;2023-07-29T01:47:34;18.90;99.90
14378;DHT22;7272;53.668;9.578;2023-07-29T01:50:35;18.90;99.90
14378;DHT22;7272;53.668;9.578;2023-07-29T01:53:36;18.80;99.90
14378;DHT22;7272;53.668;9.578;2023-07-29T01:56:38;18.80;99.90
14378;DHT22;7272;53.668;9.578;2023-07-29T01:59:40;18.70;99.90
14378;DHT22;7272;53.668;9.578;2023-07-29T02:02:41;18.80;99.90
14378;DHT22;7272;53.668;9.578;2023-07-29T02:05:43;18.80;99.90
14378;DHT22;7272;53.668;9.578;2023-07-29T02:08:45;18.80;99.90
14378;DHT22;7272;53.668;9.578;2023-07-29T02:11:46;18.80;99.90
14378;DHT22;7272;53.668;9.578;2023-07-29T02:14:48;18.80;99.90
14378;DHT22;7272;53.668;9.578;2023-07-29T02:17:50;18.80;99.90
14378;DHT22;7272;53.668;9.578;2023-07-29T02:20:51;18.70;99.90
14378;DHT22;7272;53.668;9.578;2023-07-29T02:23:53;18.80;99.90
14378;DHT22;7272;53.668;9.578;2023-07-29T02:26:55;19.00;99.90
14378;DHT22;7272;53.668;9.578;2023-07-29T02:29:56;19.00;99.90
14378;DHT22;7272;53.668;9.578;2023-07-29T02:32:57;19.00;99.90
14378;DHT22;7272;53.668;9.578;2023-07-29T02:36:00;19.00;99.90
14378;DHT22;7272;53.668;9.578;2023-07-29T02:39:06;19.10;99.90
14378;DHT22;7272;53.668;9.578;2023-07-29T02:42:08;19.00;99.90
14378;DHT22;7272;53.668;9.578;2023-07-29T02:45:09;19.00;99.90
14378;DHT22;7272;53.668;9.578;2023-07-29T02:48:12;19.10;99.90
14378;DHT22;7272;53.668;9.578;2023-07-29T02:51:13;19.10;99.90
14378;DHT22;7272;53.668;9.578;2023-07-29T02:54:14;19.00;99.90
14378;DHT22;7272;53.668;9.578;2023-07-29T02:57:16;19.10;99.90
14378;DHT22;7272;53.668;9.578;2023-07-29T03:00:18;19.10;99.90
14378;DHT22;7272;53.668;9.578;2023-07-29T03:03:19;19.10;99.90
14378;DHT22;7272;53.668;9.578;2023-07-29T03:06:20;19.30;99.90
14378;DHT22;7272;53.668;9.578;2023-07-29T03:09:22;19.30;99.90
14378;DHT22;7272;53.668;9.578;2023-07-29T03:12:23;19.30;99.90
14378;DHT22;7272;53.668;9.578;2023-07-29T03:15:25;19.30;99.90
14378;DHT22;7272;53.668;9.578;2023-07-29T03:18:27;19.30;99.90
14378;DHT22;7272;53.668;9.578;2023-07-29T03:21:28;19.40;99.90
14378;DHT22;7272;53.668;9.578;2023-07-29T03:24:29;19.40;99.90
14378;DHT22;7272;53.668;9.578;2023-07-29T03:27:31;19.50;99.90
14378;DHT22;7272;53.668;9.578;2023-07-29T03:30:32;19.50;99.90
14378;DHT22;7272;53.668;9.578;2023-07-29T03:33:34;19.50;99.90
14378;DHT22;7272;53.668;9.578;2023-07-29T03:36:35;19.50;99.90
14378;DHT22;7272;53.668;9.578;2023-07-29T03:39:36;19.50;99.90
14378;DHT22;7272;53.668;9.578;2023-07-29T03:42:38;19.60;99.90
14378;DHT22;7272;53.668;9.578;2023-07-29T03:45:40;19.70;99.90
14378;DHT22;7272;53.668;9.578;2023-07-29T03:48:41;19.80;99.90
14378;DHT22;7272;53.668;9.578;2023-07-29T03:51:42;19.70;99.90
14378;DHT22;7272;53.668;9.578;2023-07-29T03:54:44;19.70;99.90
14378;DHT22;7272;53.668;9.578;2023-07-29T03:57:46;19.70;99.90
14378;DHT22;7272;53.668;9.578;2023-07-29T04:00:48;19.70;99.90
14378;DHT22;7272;53.668;9.578;2023-07-29T04:03:49;19.80;99.90
14378;DHT22;7272;53.668;9.578;2023-07-29T04:06:53;20.00;99.90
14378;DHT22;7272;53.668;9.578;2023-07-29T04:09:54;20.00;99.90
14378;DHT22;7272;53.668;9.578;2023-07-29T04:12:56;19.90;99.90
14378;DHT22;7272;53.668;9.578;2023-07-29T04:15:57;19.90;99.90
14378;DHT22;7272;53.668;9.578;2023-07-29T04:18:58;19.90;99.90
14378;DHT22;7272;53.668;9.578;2023-07-29T04:22:00;20.00;99.90
14378;DHT22;7272;53.668;9.578;2023-07-29T04:25:01;20.00;99.90
14378;DHT22;7272;53.668;9.578;2023-07-29T04:28:03;20.00;99.90
14378;DHT22;7272;53.668;9.578;2023-07-29T04:31:05;19.90;99.90
14378;DHT22;7272;53.668;9.578;2023-07-29T04:34:07;19.90;99.90
14378;DHT22;7272;53.668;9.578;2023-07-29T04:37:08;19.90;99.90
14378;DHT22;7272;53.668;9.578;2023-07-29T04:40:10;19.90;99.90
14378;DHT22;7272;53.668;9.578;2023-07-29T04:43:12;20.00;99.90
14378;DHT22;7272;53.668;9.578;2023-07-29T04:46:13;20.00;99.90
14378;DHT22;7272;53.668;9.578;2023-07-29T04:49:14;20.00;99.90
14378;DHT22;7272;53.668;9.578;2023-07-29T04:52:16;20.00;99.90
14378;DHT22;7272;53.668;9.578;2023-07-29T04:55:17;20.00;99.90
14378;DHT22;7272;53.668;9.578;2023-07-29T04:58:19;20.00;99.90
14378;DHT22;7272;53.668;9.578;2023-07-29T05:01:20;20.00;99.90
14378;DHT22;7272;53.668;9.578;2023-07-29T05:04:21;20.00;99.90
14378;DHT22;7272;53.668;9.578;2023-07-29T05:07:23;20.00;99.90
14378;DHT22;7272;53.668;9.578;2023-07-29T05:10:25;20.10;99.90
14378;DHT22;7272;53.668;9.578;2023-07-29T05:13:26;20.10;99.90
14378;DHT22;7272;53.668;9.578;2023-07-29T05:16:28;20.10;99.90
14378;DHT22;7272;53.668;9.578;2023-07-29T05:19:29;20.10;99.90
14378;DHT22;7272;53.668;9.578;2023-07-29T05:22:30;20.30;99.90
14378;DHT22;7272;53.668;9.578;2023-07-29T05:25:32;20.50;99.90
14378;DHT22;7272;53.668;9.578;2023-07-29T05:28:36;20.50;99.90
14378;DHT22;7272;53.668;9.578;2023-07-29T05:31:37;20.50;99.90
14378;DHT22;7272;53.668;9.578;2023-07-29T05:34:38;20.50;99.90
14378;DHT22;7272;53.668;9.578;2023-07-29T05:37:41;20.50;99.90
14378;DHT22;7272;53.668;9.578;2023-07-29T05:40:42;20.60;99.90
14378;DHT22;7272;53.668;9.578;2023-07-29T05:43:44;20.60;99.90
14378;DHT22;7272;53.668;9.578;2023-07-29T05:46:46;20.60;99.90
14378;DHT22;7272;53.668;9.578;2023-07-29T05:49:48;20.60;99.90
14378;DHT22;7272;53.668;9.578;2023-07-29T05:52:49;20.50;99.90
14378;DHT22;7272;53.668;9.578;2023-07-29T05:55:50;20.50;99.90
14378;DHT22;7272;53.668;9.578;2023-07-29T05:58:52;20.40;99.90
14378;DHT22;7272;53.668;9.578;2023-07-29T06:01:55;20.50;99.90
14378;DHT22;7272;53.668;9.578;2023-07-29T06:04:56;20.60;99.90
14378;DHT22;7272;53.668;9.578;2023-07-29T06:07:57;20.50;99.90
14378;DHT22;7272;53.668;9.578;2023-07-29T06:10:58;20.50;99.90
14378;DHT22;7272;53.668;9.578;2023-07-29T06:14:00;20.50;99.90
14378;DHT22;7272;53.668;9.578;2023-07-29T06:17:02;20.60;99.90
14378;DHT22;7272;53.668;9.578;2023-07-29T06:20:04;20.70;99.90
14378;DHT22;7272;53.668;9.578;2023-07-29T06:23:05;20.80;99.90
14378;DHT22;7272;53.668;9.578;2023-07-29T06:26:06;20.80;99.90
14378;DHT22;7272;53.668;9.578;2023-07-29T06:29:08;20.80;99.90
14378;DHT22;7272;53.668;9.578;2023-07-29T06:32:09;20.80;99.90
14378;DHT22;7272;53.668;9.578;2023-07-29T06:35:10;20.90;99.90
14378;DHT22;7272;53.668;9.578;2023-07-29T06:38:12;21.00;99.90
14378;DHT22;7272;53.668;9.578;2023-07-29T06:41:13;21.00;99.90
14378;DHT22;7272;53.668;9.578;2023-07-29T06:44:15;21.20;99.90
14378;DHT22;7272;53.668;9.578;2023-07-29T06:47:16;21.40;99.90
14378;DHT22;7272;53.668;9.578;2023-07-29T06:50:18;21.50;99.90
14378;DHT22;7272;53.668;9.578;2023-07-29T06:53:19;21.60;99.90
14378;DHT22;7272;53.668;9.578;2023-07-29T06:56:20;21.60;99.90
14378;DHT22;7272;53.668;9.578;2023-07-29T06:59:22;21.70;99.90
14378;DHT22;7272;53.668;9.578;2023-07-29T07:02:25;21.80;99.90
14378;DHT22;7272;53.668;9.578;2023-07-29T07:05:26;21.80;99.90
14378;DHT22;7272;53.668;9.578;2023-07-29T07:08:27;21.70;99.90
14378;DHT22;7272;53.668;9.578;2023-07-29T07:11:28;21.60;99.90
14378;DHT22;7272;53.668;9.578;2023-07-29T07:14:30;21.50;99.90
14378;DHT22;7272;53.668;9.578;2023-07-29T07:17:32;21.60;99.90
14378;DHT22;7272;53.668;9.578;2023-07-29T07:20:34;21.60;99.90
14378;DHT22;7272;53.668;9.578;2023-07-29T07:23:36;21.80;99.90
14378;DHT22;7272;53.668;9.578;2023-07-29T07:26:37;21.80;99.90
14378;DHT22;7272;53.668;9.578;2023-07-29T07:29:39;21.70;99.90
14378;DHT22;7272;53.668;9.578;2023-07-29T07:32:40;21.70;99.90
14378;DHT22;7272;53.668;9.578;2023-07-29T07:35:41;21.60;99.90
14378;DHT22;7272;53.668;9.578;2023-07-29T07:38:43;21.60;99.90
14378;DHT22;7272;53.668;9.578;2023-07-29T07:41:44;21.70;99.90
14378;DHT22;7272;53.668;9.578;2023-07-29T07:44:46;21.80;99.90
14378;DHT22;7272;53.668;9.578;2023-07-29T07:47:48;21.90;99.90
14378;DHT22;7272;53.668;9.578;2023-07-29T07:50:49;21.80;99.90
14378;DHT22;7272;53.668;9.578;2023-07-29T07:53:50;21.90;99.90
14378;DHT22;7272;53.668;9.578;2023-07-29T07:56:51;21.90;99.90
14378;DHT22;7272;53.668;9.578;2023-07-29T07:59:53;21.90;99.90
14378;DHT22;7272;53.668;9.578;2023-07-29T08:02:54;22.00;99.90
14378;DHT22;7272;53.668;9.578;2023-07-29T08:05:56;22.10;99.90
14378;DHT22;7272;53.668;9.578;2023-07-29T08:08:57;22.30;99.90
14378;DHT22;7272;53.668;9.578;2023-07-29T08:11:58;22.40;99.90
14378;DHT22;7272;53.668;9.578;2023-07-29T08:15:00;22.60;99.90
14378;DHT22;7272;53.668;9.578;2023-07-29T08:18:02;22.60;99.90
14378;DHT22;7272;53.668;9.578;2023-07-29T08:21:03;22.50;99.90
14378;DHT22;7272;53.668;9.578;2023-07-29T08:24:04;22.30;99.90
14378;DHT22;7272;53.668;9.578;2023-07-29T08:27:07;22.30;99.90
14378;DHT22;7272;53.668;9.578;2023-07-29T08:30:09;22.40;99.90
14378;DHT22;7272;53.668;9.578;2023-07-29T08:33:11;22.50;99.90
14378;DHT22;7272;53.668;9.578;2023-07-29T08:36:12;22.50;99.90
14378;DHT22;7272;53.668;9.578;2023-07-29T08:39:13;22.60;99.90
14378;DHT22;7272;53.668;9.578;2023-07-29T08:42:16;22.60;99.90
14378;DHT22;7272;53.668;9.578;2023-07-29T08:45:21;22.70;99.90
14378;DHT22;7272;53.668;9.578;2023-07-29T08:48:32;22.90;99.90
14378;DHT22;7272;53.668;9.578;2023-07-29T08:51:38;23.20;99.90
14378;DHT22;7272;53.668;9.578;2023-07-29T08:54:40;23.40;99.90
14378;DHT22;7272;53.668;9.578;2023-07-29T08:57:41;23.60;99.90
14378;DHT22;7272;53.668;9.578;2023-07-29T09:00:43;23.80;99.90
14378;DHT22;7272;53.668;9.578;2023-07-29T09:03:45;24.00;99.90
14378;DHT22;7272;53.668;9.578;2023-07-29T09:06:47;23.90;99.90
14378;DHT22;7272;53.668;9.578;2023-07-29T09:09:50;23.80;99.90
14378;DHT22;7272;53.668;9.578;2023-07-29T09:12:52;23.80;99.90
14378;DHT22;7272;53.668;9.578;2023-07-29T09:15:55;23.70;99.90
14378;DHT22;7272;53.668;9.578;2023-07-29T09:19:01;23.80;99.90
14378;DHT22;7272;53.668;9.578;2023-07-29T09:22:03;23.80;99.90
14378;DHT22;7272;53.668;9.578;2023-07-29T09:25:05;23.90;99.90
14378;DHT22;7272;53.668;9.578;2023-07-29T09:28:11;24.10;99.90
14378;DHT22;7272;53.668;9.578;2023-07-29T09:31:20;24.50;99.90
14378;DHT22;7272;53.668;9.578;2023-07-29T09:34:21;24.60;99.90
14378;DHT22;7272;53.668;9.578;2023-07-29T09:37:23;24.60;99.90
14378;DHT22;7272;53.668;9.578;2023-07-29T09:40:24;24.50;99.90
14378;DHT22;7272;53.668;9.578;2023-07-29T09:43:26;24.60;99.90
14378;DHT22;7272;53.668;9.578;2023-07-29T09:46:34;24.80;99.90
14378;DHT22;7272;53.668;9.578;2023-07-29T09:49:35;25.00;99.90
14378;DHT22;7272;53.668;9.578;2023-07-29T09:52:37;25.00;99.90
14378;DHT22;7272;53.668;9.578;2023-07-29T09:55:38;25.10;99.90
14378;DHT22;7272;53.668;9.578;2023-07-29T09:58:40;25.00;99.90
14378;DHT22;7272;53.668;9.578;2023-07-29T10:01:44;25.10;99.90
14378;DHT22;7272;53.668;9.578;2023-07-29T10:04:46;25.40;99.90
14378;DHT22;7272;53.668;9.578;2023-07-29T10:07:48;25.70;99.90
14378;DHT22;7272;53.668;9.578;2023-07-29T10:10:50;25.80;99.90
14378;DHT22;7272;53.668;9.578;2023-07-29T10:13:51;25.90;99.90
14378;DHT22;7272;53.668;9.578;2023-07-29T10:16:55;26.10;99.90
14378;DHT22;7272;53.668;9.578;2023-07-29T10:19:57;26.30;99.90
14378;DHT22;7272;53.668;9.578;2023-07-29T10:22:59;26.40;99.90
14378;DHT22;7272;53.668;9.578;2023-07-29T10:26:03;26.40;99.90
14378;DHT22;7272;53.668;9.578;2023-07-29T10:29:07;26.40;99.90
14378;DHT22;7272;53.668;9.578;2023-07-29T10:32:14;26.40;99.90
14378;DHT22;7272;53.668;9.578;2023-07-29T10:35:16;26.30;99.90
14378;DHT22;7272;53.668;9.578;2023-07-29T10:38:18;25.90;99.90
14378;DHT22;7272;53.668;9.578;2023-07-29T10:41:20;25.50;99.90
14378;DHT22;7272;53.668;9.578;2023-07-29T10:44:45;25.30;99.90
14378;DHT22;7272;53.668;9.578;2023-07-29T10:47:48;25.20;99.90
14378;DHT22;7272;53.668;9.578;2023-07-29T10:50:49;25.70;99.90
14378;DHT22;7272;53.668;9.578;2023-07-29T10:53:52;26.40;99.90
14378;DHT22;7272;53.668;9.578;2023-07-29T10:56:56;26.60;99.90
14378;DHT22;7272;53.668;9.578;2023-07-29T10:59:59;26.60;99.90
14378;DHT22;7272;53.668;9.578;2023-07-29T11:03:02;26.80;99.90
14378;DHT22;7272;53.668;9.578;2023-07-29T11:06:04;27.10;99.90
14378;DHT22;7272;53.668;9.578;2023-07-29T11:09:38;27.10;99.90
14378;DHT22;7272;53.668;9.578;2023-07-29T11:12:44;27.10;99.90
14378;DHT22;7272;53.668;9.578;2023-07-29T11:15:51;27.20;99.90
14378;DHT22;7272;53.668;9.578;2023-07-29T11:18:55;27.20;99.90
14378;DHT22;7272;53.668;9.578;2023-07-29T11:21:56;27.10;99.90
14378;DHT22;7272;53.668;9.578;2023-07-29T11:24:57;26.80;99.90
14378;DHT22;7272;53.668;9.578;2023-07-29T11:27:59;26.40;99.90
14378;DHT22;7272;53.668;9.578;2023-07-29T11:31:01;26.10;99.90
14378;DHT22;7272;53.668;9.578;2023-07-29T11:34:07;25.80;99.90
14378;DHT22;7272;53.668;9.578;2023-07-29T11:37:10;25.60;99.90
14378;DHT22;7272;53.668;9.578;2023-07-29T11:40:14;25.40;99.90
14378;DHT22;7272;53.668;9.578;2023-07-29T11:43:18;25.30;99.90
14378;DHT22;7272;53.668;9.578;2023-07-29T11:46:22;25.40;99.90
14378;DHT22;7272;53.668;9.578;2023-07-29T11:49:25;25.60;99.90
14378;DHT22;7272;53.668;9.578;2023-07-29T11:52:27;26.10;99.90
14378;DHT22;7272;53.668;9.578;2023-07-29T11:55:29;26.20;99.90
14378;DHT22;7272;53.668;9.578;2023-07-29T11:58:31;25.80;99.90
14378;DHT22;7272;53.668;9.578;2023-07-29T12:01:33;25.50;99.90
14378;DHT22;7272;53.668;9.578;2023-07-29T12:04:35;25.00;99.90
14378;DHT22;7272;53.668;9.578;2023-07-29T12:07:38;24.70;99.90
14378;DHT22;7272;53.668;9.578;2023-07-29T12:10:40;24.50;99.90
14378;DHT22;7272;53.668;9.578;2023-07-29T12:13:41;24.50;99.90
14378;DHT22;7272;53.668;9.578;2023-07-29T12:16:43;24.50;99.90
14378;DHT22;7272;53.668;9.578;2023-07-29T12:19:45;24.40;99.90
14378;DHT22;7272;53.668;9.578;2023-07-29T12:22:52;24.80;99.90
14378;DHT22;7272;53.668;9.578;2023-07-29T12:25:57;25.30;99.90
14378;DHT22;7272;53.668;9.578;2023-07-29T12:28:58;25.70;99.90
14378;DHT22;7272;53.668;9.578;2023-07-29T12:32:01;26.10;99.90
14378;DHT22;7272;53.668;9.578;2023-07-29T12:35:09;26.50;99.90
14378;DHT22;7272;53.668;9.578;2023-07-29T12:38:11;26.90;99.90
14378;DHT22;7272;53.668;9.578;2023-07-29T12:41:12;27.00;99.90
14378;DHT22;7272;53.668;9.578;2023-07-29T12:44:13;27.00;99.90
14378;DHT22;7272;53.668;9.578;2023-07-29T12:47:14;26.70;99.90
14378;DHT22;7272;53.668;9.578;2023-07-29T12:50:16;26.40;99.90
14378;DHT22;7272;53.668;9.578;2023-07-29T12:53:17;26.10;99.90
14378;DHT22;7272;53.668;9.578;2023-07-29T12:56:19;25.90;99.90
14378;DHT22;7272;53.668;9.578;2023-07-29T12:59:20;25.90;99.90
14378;DHT22;7272;53.668;9.578;2023-07-29T13:02:21;26.20;99.90
14378;DHT22;7272;53.668;9.578;2023-07-29T13:05:23;26.50;99.90
14378;DHT22;7272;53.668;9.578;2023-07-29T13:08:24;27.00;99.90
14378;DHT22;7272;53.668;9.578;2023-07-29T13:11:25;27.10;99.90
14378;DHT22;7272;53.668;9.578;2023-07-29T13:14:27;27.10;99.90
14378;DHT22;7272;53.668;9.578;2023-07-29T13:17:28;26.90;99.90
14378;DHT22;7272;53.668;9.578;2023-07-29T13:20:30;26.60;99.90
14378;DHT22;7272;53.668;9.578;2023-07-29T13:23:31;26.40;99.90
14378;DHT22;7272;53.668;9.578;2023-07-29T13:26:33;26.30;99.90
14378;DHT22;7272;53.668;9.578;2023-07-29T13:29:34;26.20;99.90
14378;DHT22;7272;53.668;9.578;2023-07-29T13:32:35;26.30;99.90
14378;DHT22;7272;53.668;9.578;2023-07-29T13:35:37;26.20;99.90
14378;DHT22;7272;53.668;9.578;2023-07-29T13:38:38;26.00;99.90
14378;DHT22;7272;53.668;9.578;2023-07-29T13:41:39;26.00;99.90
14378;DHT22;7272;53.668;9.578;2023-07-29T13:44:41;26.20;99.90
14378;DHT22;7272;53.668;9.578;2023-07-29T13:47:42;26.20;99.90
14378;DHT22;7272;53.668;9.578;2023-07-29T13:50:44;26.20;99.90
14378;DHT22;7272;53.668;9.578;2023-07-29T13:53:45;26.00;99.90
14378;DHT22;7272;53.668;9.578;2023-07-29T13:56:46;25.90;99.90
14378;DHT22;7272;53.668;9.578;2023-07-29T13:59:47;25.70;99.90
14378;DHT22;7272;53.668;9.578;2023-07-29T14:02:48;25.40;99.90
14378;DHT22;7272;53.668;9.578;2023-07-29T14:05:50;25.70;99.90
14378;DHT22;7272;53.668;9.578;2023-07-29T14:08:51;25.90;99.90
14378;DHT22;7272;53.668;9.578;2023-07-29T14:11:53;25.90;99.90
14378;DHT22;7272;53.668;9.578;2023-07-29T14:14:55;25.90;99.90
14378;DHT22;7272;53.668;9.578;2023-07-29T14:17:56;25.80;99.90
14378;DHT22;7272;53.668;9.578;2023-07-29T14:20:58;26.10;99.90
14378;DHT22;7272;53.668;9.578;2023-07-29T14:23:59;26.40;99.90
14378;DHT22;7272;53.668;9.578;2023-07-29T14:27:01;26.60;99.90
14378;DHT22;7272;53.668;9.578;2023-07-29T14:30:04;26.70;99.90
14378;DHT22;7272;53.668;9.578;2023-07-29T14:33:06;26.70;99.90
14378;DHT22;7272;53.668;9.578;2023-07-29T14:36:08;26.70;99.90
14378;DHT22;7272;53.668;9.578;2023-07-29T14:39:09;26.80;99.90
14378;DHT22;7272;53.668;9.578;2023-07-29T14:42:10;26.80;99.90
14378;DHT22;7272;53.668;9.578;2023-07-29T14:45:11;26.80;99.90
14378;DHT22;7272;53.668;9.578;2023-07-29T14:48:12;26.90;99.90
14378;DHT22;7272;53.668;9.578;2023-07-29T14:51:14;26.90;99.90
14378;DHT22;7272;53.668;9.578;2023-07-29T14:54:16;26.70;99.90
14378;DHT22;7272;53.668;9.578;2023-07-29T14:57:17;26.60;99.90
14378;DHT22;7272;53.668;9.578;2023-07-29T15:00:18;26.40;99.90
14378;DHT22;7272;53.668;9.578;2023-07-29T15:03:19;26.50;99.90
14378;DHT22;7272;53.668;9.578;2023-07-29T15:06:21;26.40;99.90
14378;DHT22;7272;53.668;9.578;2023-07-29T15:09:22;26.30;99.90
14378;DHT22;7272;53.668;9.578;2023-07-29T15:12:24;26.30;99.90
14378;DHT22;7272;53.668;9.578;2023-07-29T15:15:25;26.30;99.90
14378;DHT22;7272;53.668;9.578;2023-07-29T15:18:26;26.10;99.90
14378;DHT22;7272;53.668;9.578;2023-07-29T15:21:31;26.00;99.90
14378;DHT22;7272;53.668;9.578;2023-07-29T15:24:34;25.80;99.90
14378;DHT22;7272;53.668;9.578;2023-07-29T15:27:35;25.40;99.90
14378;DHT22;7272;53.668;9.578;2023-07-29T15:30:36;25.10;99.90
14378;DHT22;7272;53.668;9.578;2023-07-29T15:33:38;24.60;99.90
14378;DHT22;7272;53.668;9.578;2023-07-29T15:36:39;24.20;99.90
14378;DHT22;7272;53.668;9.578;2023-07-29T15:39:41;23.90;99.90
14378;DHT22;7272;53.668;9.578;2023-07-29T15:42:42;23.80;99.90
14378;DHT22;7272;53.668;9.578;2023-07-29T15:45:44;23.60;99.90
14378;DHT22;7272;53.668;9.578;2023-07-29T15:48:45;22.80;99.90
14378;DHT22;7272;53.668;9.578;2023-07-29T15:51:47;21.70;99.90
14378;DHT22;7272;53.668;9.578;2023-07-29T15:54:49;21.00;99.90
14378;DHT22;7272;53.668;9.578;2023-07-29T15:57:52;20.40;99.90
14378;DHT22;7272;53.668;9.578;2023-07-29T16:00:53;20.10;99.90
14378;DHT22;7272;53.668;9.578;2023-07-29T16:03:54;19.90;99.90
14378;DHT22;7272;53.668;9.578;2023-07-29T16:06:56;19.90;99.90
14378;DHT22;7272;53.668;9.578;2023-07-29T16:09:57;20.00;99.90
14378;DHT22;7272;53.668;9.578;2023-07-29T16:12:58;20.00;99.90
14378;DHT22;7272;53.668;9.578;2023-07-29T16:16:00;20.30;99.90
14378;DHT22;7272;53.668;9.578;2023-07-29T16:19:02;20.40;99.90
14378;DHT22;7272;53.668;9.578;2023-07-29T16:22:04;20.70;99.90
14378;DHT22;7272;53.668;9.578;2023-07-29T16:25:06;20.70;99.90
14378;DHT22;7272;53.668;9.578;2023-07-29T16:28:07;20.70;99.90
14378;DHT22;7272;53.668;9.578;2023-07-29T16:31:08;20.60;99.90
14378;DHT22;7272;53.668;9.578;2023-07-29T16:34:09;20.60;99.90
14378;DHT22;7272;53.668;9.578;2023-07-29T16:37:11;20.50;99.90
14378;DHT22;7272;53.668;9.578;2023-07-29T16:40:12;20.50;99.90
14378;DHT22;7272;53.668;9.578;2023-07-29T16:43:14;20.40;99.90
14378;DHT22;7272;53.668;9.578;2023-07-29T16:46:15;20.30;99.90
14378;DHT22;7272;53.668;9.578;2023-07-29T16:49:16;20.30;99.90
14378;DHT22;7272;53.668;9.578;2023-07-29T16:52:18;20.40;99.90
14378;DHT22;7272;53.668;9.578;2023-07-29T16:55:19;20.50;99.90
14378;DHT22;7272;53.668;9.578;2023-07-29T16:58:21;20.50;99.90
14378;DHT22;7272;53.668;9.578;2023-07-29T17:01:22;20.70;99.90
14378;DHT22;7272;53.668;9.578;2023-07-29T17:04:23;20.70;99.90
14378;DHT22;7272;53.668;9.578;2023-07-29T17:07:25;20.70;99.90
14378;DHT22;7272;53.668;9.578;2023-07-29T17:10:27;20.70;99.90
14378;DHT22;7272;53.668;9.578;2023-07-29T17:13:28;20.70;99.90
14378;DHT22;7272;53.668;9.578;2023-07-29T17:16:29;20.70;99.90
14378;DHT22;7272;53.668;9.578;2023-07-29T17:19:30;20.80;99.90
14378;DHT22;7272;53.668;9.578;2023-07-29T17:22:32;20.80;99.90
14378;DHT22;7272;53.668;9.578;2023-07-29T17:25:35;20.80;99.90
14378;DHT22;7272;53.668;9.578;2023-07-29T17:28:37;20.80;99.90
14378;DHT22;7272;53.668;9.578;2023-07-29T17:31:38;20.90;99.90
14378;DHT22;7272;53.668;9.578;2023-07-29T17:34:39;20.90;99.90
14378;DHT22;7272;53.668;9.578;2023-07-29T17:37:41;20.90;99.90
14378;DHT22;7272;53.668;9.578;2023-07-29T17:40:42;20.90;99.90
14378;DHT22;7272;53.668;9.578;2023-07-29T17:43:43;20.80;99.90
14378;DHT22;7272;53.668;9.578;2023-07-29T17:46:47;20.80;99.90
14378;DHT22;7272;53.668;9.578;2023-07-29T17:49:48;20.80;99.90
14378;DHT22;7272;53.668;9.578;2023-07-29T17:52:50;20.80;99.90
14378;DHT22;7272;53.668;9.578;2023-07-29T17:55:51;20.70;99.90
14378;DHT22;7272;53.668;9.578;2023-07-29T17:58:52;20.70;99.90
14378;DHT22;7272;53.668;9.578;2023-07-29T18:09:12;20.60;99.90
14378;DHT22;7272;53.668;9.578;2023-07-29T18:12:14;20.50;99.90
14378;DHT22;7272;53.668;9.578;2023-07-29T18:15:15;20.60;99.90
14378;DHT22;7272;53.668;9.578;2023-07-29T18:18:16;20.60;99.90
14378;DHT22;7272;53.668;9.578;2023-07-29T18:21:17;20.50;99.90
14378;DHT22;7272;53.668;9.578;2023-07-29T18:24:19;20.40;99.90
14378;DHT22;7272;53.668;9.578;2023-07-29T18:27:20;20.20;99.90
14378;DHT22;7272;53.668;9.578;2023-07-29T18:30:21;20.10;99.90
14378;DHT22;7272;53.668;9.578;2023-07-29T18:33:22;20.10;99.90
14378;DHT22;7272;53.668;9.578;2023-07-29T18:36:23;20.20;99.90
14378;DHT22;7272;53.668;9.578;2023-07-29T18:39:25;20.30;99.90
14378;DHT22;7272;53.668;9.578;2023-07-29T18:42:27;20.40;99.90
14378;DHT22;7272;53.668;9.578;2023-07-29T18:45:28;20.40;99.90
14378;DHT22;7272;53.668;9.578;2023-07-29T18:48:29;20.40;99.90
14378;DHT22;7272;53.668;9.578;2023-07-29T18:51:31;20.40;99.90
14378;DHT22;7272;53.668;9.578;2023-07-29T18:54:32;20.50;99.90
14378;DHT22;7272;53.668;9.578;2023-07-29T18:57:35;20.50;99.90
14378;DHT22;7272;53.668;9.578;2023-07-29T19:00:36;20.40;99.90
14378;DHT22;7272;53.668;9.578;2023-07-29T19:03:38;20.30;99.90
14378;DHT22;7272;53.668;9.578;2023-07-29T19:06:42;20.20;99.90
14378;DHT22;7272;53.668;9.578;2023-07-29T19:09:44;20.10;99.90
14378;DHT22;7272;53.668;9.578;2023-07-29T19:12:45;20.00;99.90
14378;DHT22;7272;53.668;9.578;2023-07-29T19:15:49;20.00;99.90
14378;DHT22;7272;53.668;9.578;2023-07-29T19:18:51;20.00;99.90
14378;DHT22;7272;53.668;9.578;2023-07-29T19:21:52;19.90;99.90
14378;DHT22;7272;53.668;9.578;2023-07-29T19:24:54;19.80;99.90
14378;DHT22;7272;53.668;9.578;2023-07-29T19:27:55;19.70;99.90
14378;DHT22;7272;53.668;9.578;2023-07-29T19:30:57;19.60;99.90
14378;DHT22;7272;53.668;9.578;2023-07-29T19:33:58;19.60;99.90
14378;DHT22;7272;53.668;9.578;2023-07-29T19:37:00;19.50;99.90